Portada
METAR-TAF:

METAR-TAF

Aeropuertos :

Angulema, Francia

latitud: 45-43-46N, longitud: 00-13-08E, altitud: 132 m

Observación

El informe se hizo hace 43 minutos, a las 19:00 UTC
Viento 15 kt del noreste
Temperatura 4°C
Humedad 87%
Presión 1020 hPa
Visibilidad: 7000 m

METAR: LFBU 291900Z AUTO 05015KT 7000 NSC 04/02 Q1020 NOSIG

Hora: 20:43 (19:43 UTC)

Pronóstico

El informe se hizo hace 2 horas y 43 minutos, a las 17:00 UTC
Pronóstico válido del 29 a las 18 UTC al 30 a las 18 UTC
Viento 10 kt del norte-noreste
Visibilidad 10 km o más
sin nubes por debajo de 1500 m y sin presencia de cumulonimbus.
Probabilidad 30% :
Temporalmente
del 29 a las 21 UTC al 30 a las 02 UTC
Cielo nuboso a una altura de 1200 ft
Temporalmente
del 30 a las 02 UTC al 30 a las 09 UTC
Cielo nuboso a una altura de 500 ft

TAF: LFBU 291700Z 2918/3018 03010KT CAVOK PROB30 TEMPO 2921/3002 BKN012 TEMPO 3002/3009 BKN005

Observaciones y pronósticos meteorológicos de más de 4000 aeropuertos (mensajes METAR y TAF).

Los puntos amarillos y rojos representan las estaciones disponibles.

Ponga el ratón en el punto deseado para ver el nombre de la estación.

Haga clic para ver las observaciones y los pronósticos meteorológicos.

Para cambiar el mapa : haga clic en los botones verdes con una cruz de color negro para hacer un zoom, en el botón verde con un guión para alejar o en las flechas verdes para mapas adyacentes.


METAR-TAF: